sensor_id;sensor_type;location;lat;lon;timestamp;pressure;altitude;pressure_sealevel;temperature;humidity
18988;BME280;5494;51.796;10.952;2023-08-12T00:02:17;99268.81;;;21.20;81.08
18988;BME280;5494;51.796;10.952;2023-08-12T00:04:46;99264.78;;;21.26;80.89
18988;BME280;5494;51.796;10.952;2023-08-12T00:07:15;99267.84;;;21.31;80.24
18988;BME280;5494;51.796;10.952;2023-08-12T00:09:43;99259.91;;;21.41;79.58
18988;BME280;5494;51.796;10.952;2023-08-12T00:12:11;99256.28;;;21.42;79.30
18988;BME280;5494;51.796;10.952;2023-08-12T00:14:40;99255.88;;;21.46;79.39
18988;BME280;5494;51.796;10.952;2023-08-12T00:17:08;99259.19;;;21.58;77.95
18988;BME280;5494;51.796;10.952;2023-08-12T00:19:37;99261.97;;;21.66;77.57
18988;BME280;5494;51.796;10.952;2023-08-12T00:22:05;99263.94;;;21.64;77.45
18988;BME280;5494;51.796;10.952;2023-08-12T00:24:33;99256.00;;;21.64;77.70
18988;BME280;5494;51.796;10.952;2023-08-12T00:27:01;99261.13;;;21.66;77.59
18988;BME280;5494;51.796;10.952;2023-08-12T00:29:29;99253.78;;;21.69;76.67
18988;BME280;5494;51.796;10.952;2023-08-12T00:32:00;99251.53;;;21.65;76.80
18988;BME280;5494;51.796;10.952;2023-08-12T00:34:28;99240.53;;;21.69;76.27
18988;BME280;5494;51.796;10.952;2023-08-12T00:36:56;99241.50;;;21.68;76.63
18988;BME280;5494;51.796;10.952;2023-08-12T00:39:25;99244.16;;;21.68;76.37
18988;BME280;5494;51.796;10.952;2023-08-12T00:41:53;99236.63;;;21.73;76.16
18988;BME280;5494;51.796;10.952;2023-08-12T00:44:21;99241.06;;;21.82;75.45
18988;BME280;5494;51.796;10.952;2023-08-12T00:46:50;99239.97;;;21.85;74.52
18988;BME280;5494;51.796;10.952;2023-08-12T00:49:19;99237.31;;;21.85;74.70
18988;BME280;5494;51.796;10.952;2023-08-12T00:51:49;99235.59;;;21.93;74.11
18988;BME280;5494;51.796;10.952;2023-08-12T00:54:20;99235.34;;;21.96;73.65
18988;BME280;5494;51.796;10.952;2023-08-12T00:56:49;99229.22;;;22.06;73.02
18988;BME280;5494;51.796;10.952;2023-08-12T00:59:21;99229.28;;;22.14;72.58
18988;BME280;5494;51.796;10.952;2023-08-12T01:01:50;99227.66;;;22.13;72.53
18988;BME280;5494;51.796;10.952;2023-08-12T01:04:21;99227.75;;;22.21;71.84
18988;BME280;5494;51.796;10.952;2023-08-12T01:06:50;99210.88;;;22.22;71.48
18988;BME280;5494;51.796;10.952;2023-08-12T01:09:18;99213.25;;;22.25;70.84
18988;BME280;5494;51.796;10.952;2023-08-12T01:11:56;99214.91;;;22.26;71.01
18988;BME280;5494;51.796;10.952;2023-08-12T01:14:33;99208.59;;;22.27;70.44
18988;BME280;5494;51.796;10.952;2023-08-12T01:17:06;99208.91;;;22.24;71.18
18988;BME280;5494;51.796;10.952;2023-08-12T01:19:40;99212.09;;;22.27;70.79
18988;BME280;5494;51.796;10.952;2023-08-12T01:22:10;99209.44;;;22.27;70.41
18988;BME280;5494;51.796;10.952;2023-08-12T01:24:41;99213.91;;;22.27;70.98
18988;BME280;5494;51.796;10.952;2023-08-12T01:27:12;99199.69;;;22.28;70.59
18988;BME280;5494;51.796;10.952;2023-08-12T01:29:44;99211.25;;;22.27;70.30
18988;BME280;5494;51.796;10.952;2023-08-12T01:32:24;99199.44;;;22.21;71.96
18988;BME280;5494;51.796;10.952;2023-08-12T01:35:03;99200.00;;;22.25;70.90
18988;BME280;5494;51.796;10.952;2023-08-12T01:37:36;99197.03;;;22.28;69.84
18988;BME280;5494;51.796;10.952;2023-08-12T01:40:09;99188.94;;;22.29;70.33
18988;BME280;5494;51.796;10.952;2023-08-12T01:42:40;99185.47;;;22.29;70.33
18988;BME280;5494;51.796;10.952;2023-08-12T01:45:09;99178.34;;;22.29;70.26
18988;BME280;5494;51.796;10.952;2023-08-12T01:47:38;99177.91;;;22.34;70.00
18988;BME280;5494;51.796;10.952;2023-08-12T01:50:06;99177.84;;;22.26;71.09
18988;BME280;5494;51.796;10.952;2023-08-12T01:52:34;99176.00;;;22.26;71.70
18988;BME280;5494;51.796;10.952;2023-08-12T01:55:03;99173.50;;;22.25;71.46
18988;BME280;5494;51.796;10.952;2023-08-12T01:57:33;99170.66;;;22.36;71.49
18988;BME280;5494;51.796;10.952;2023-08-12T02:00:05;99165.84;;;22.22;71.72
18988;BME280;5494;51.796;10.952;2023-08-12T02:02:43;99159.34;;;22.07;71.88
18988;BME280;5494;51.796;10.952;2023-08-12T02:05:14;99158.00;;;22.03;73.32
18988;BME280;5494;51.796;10.952;2023-08-12T02:07:43;99161.47;;;22.03;72.96
18988;BME280;5494;51.796;10.952;2023-08-12T02:10:11;99157.44;;;21.99;73.47
18988;BME280;5494;51.796;10.952;2023-08-12T02:12:42;99162.34;;;21.84;75.00
18988;BME280;5494;51.796;10.952;2023-08-12T02:15:11;99163.44;;;21.91;76.64
18988;BME280;5494;51.796;10.952;2023-08-12T02:17:39;99159.59;;;21.76;76.90
18988;BME280;5494;51.796;10.952;2023-08-12T02:20:08;99154.50;;;21.55;77.84
18988;BME280;5494;51.796;10.952;2023-08-12T02:22:36;99152.44;;;21.30;80.18
18988;BME280;5494;51.796;10.952;2023-08-12T02:25:05;99149.38;;;21.15;81.73
18988;BME280;5494;51.796;10.952;2023-08-12T02:27:33;99148.13;;;21.19;82.03
18988;BME280;5494;51.796;10.952;2023-08-12T02:30:04;99154.53;;;21.07;82.44
18988;BME280;5494;51.796;10.952;2023-08-12T02:32:32;99153.66;;;20.97;83.72
18988;BME280;5494;51.796;10.952;2023-08-12T02:35:00;99150.06;;;20.98;84.48
18988;BME280;5494;51.796;10.952;2023-08-12T02:37:29;99146.03;;;20.94;84.84
18988;BME280;5494;51.796;10.952;2023-08-12T02:39:58;99150.88;;;20.89;86.01
18988;BME280;5494;51.796;10.952;2023-08-12T02:42:26;99138.81;;;20.87;86.27
18988;BME280;5494;51.796;10.952;2023-08-12T02:44:54;99136.13;;;20.58;89.16
18988;BME280;5494;51.796;10.952;2023-08-12T02:47:24;99137.81;;;20.59;89.02
18988;BME280;5494;51.796;10.952;2023-08-12T02:49:52;99131.81;;;20.57;88.88
18988;BME280;5494;51.796;10.952;2023-08-12T02:52:20;99127.06;;;20.41;89.55
18988;BME280;5494;51.796;10.952;2023-08-12T02:54:48;99126.84;;;20.23;91.19
18988;BME280;5494;51.796;10.952;2023-08-12T02:57:17;99126.72;;;20.25;91.82
18988;BME280;5494;51.796;10.952;2023-08-12T02:59:45;99114.06;;;20.19;91.79
18988;BME280;5494;51.796;10.952;2023-08-12T03:02:13;99120.72;;;20.23;92.48
18988;BME280;5494;51.796;10.952;2023-08-12T03:04:44;99117.16;;;20.33;91.97
18988;BME280;5494;51.796;10.952;2023-08-12T03:07:12;99116.94;;;20.46;89.10
18988;BME280;5494;51.796;10.952;2023-08-12T03:09:40;99120.50;;;20.35;89.44
18988;BME280;5494;51.796;10.952;2023-08-12T03:12:09;99104.97;;;20.42;89.12
18988;BME280;5494;51.796;10.952;2023-08-12T03:14:37;99107.88;;;20.39;89.87
18988;BME280;5494;51.796;10.952;2023-08-12T03:17:05;99109.94;;;20.35;90.00
18988;BME280;5494;51.796;10.952;2023-08-12T03:19:36;99101.72;;;20.29;91.16
18988;BME280;5494;51.796;10.952;2023-08-12T03:22:06;99105.91;;;20.41;88.74
18988;BME280;5494;51.796;10.952;2023-08-12T03:24:37;99101.59;;;20.40;89.98
18988;BME280;5494;51.796;10.952;2023-08-12T03:27:05;99089.53;;;20.47;89.57
18988;BME280;5494;51.796;10.952;2023-08-12T03:29:34;99090.81;;;20.53;87.09
18988;BME280;5494;51.796;10.952;2023-08-12T03:32:03;99094.69;;;20.49;88.33
18988;BME280;5494;51.796;10.952;2023-08-12T03:34:31;99099.56;;;20.53;87.59
18988;BME280;5494;51.796;10.952;2023-08-12T03:36:59;99099.69;;;20.52;87.75
18988;BME280;5494;51.796;10.952;2023-08-12T03:39:28;99099.16;;;20.58;86.84
18988;BME280;5494;51.796;10.952;2023-08-12T03:41:58;99092.91;;;20.59;86.08
18988;BME280;5494;51.796;10.952;2023-08-12T03:44:26;99089.72;;;20.74;84.19
18988;BME280;5494;51.796;10.952;2023-08-12T03:46:55;99085.06;;;20.96;78.50
18988;BME280;5494;51.796;10.952;2023-08-12T03:49:25;99085.38;;;21.21;76.24
18988;BME280;5494;51.796;10.952;2023-08-12T03:51:53;99079.06;;;21.42;73.93
18988;BME280;5494;51.796;10.952;2023-08-12T03:54:21;99081.50;;;21.63;72.73
18988;BME280;5494;51.796;10.952;2023-08-12T03:56:51;99090.28;;;21.90;70.39
18988;BME280;5494;51.796;10.952;2023-08-12T03:59:20;99089.97;;;22.03;69.71
18988;BME280;5494;51.796;10.952;2023-08-12T04:01:48;99092.97;;;22.18;68.41
18988;BME280;5494;51.796;10.952;2023-08-12T04:04:16;99088.16;;;22.31;67.72
18988;BME280;5494;51.796;10.952;2023-08-12T04:06:44;99080.94;;;22.41;66.64
18988;BME280;5494;51.796;10.952;2023-08-12T04:09:15;99083.41;;;22.52;65.73
18988;BME280;5494;51.796;10.952;2023-08-12T04:11:43;99080.88;;;22.68;63.87
18988;BME280;5494;51.796;10.952;2023-08-12T04:14:14;99080.56;;;22.81;63.15
18988;BME280;5494;51.796;10.952;2023-08-12T04:16:42;99078.34;;;22.94;62.36
18988;BME280;5494;51.796;10.952;2023-08-12T04:19:11;99087.78;;;22.97;61.92
18988;BME280;5494;51.796;10.952;2023-08-12T04:21:39;99093.50;;;23.02;61.66
18988;BME280;5494;51.796;10.952;2023-08-12T04:24:08;99076.97;;;23.08;60.81
18988;BME280;5494;51.796;10.952;2023-08-12T04:26:36;99075.44;;;23.05;61.02
18988;BME280;5494;51.796;10.952;2023-08-12T04:29:04;99076.13;;;23.07;60.81
18988;BME280;5494;51.796;10.952;2023-08-12T04:31:40;99071.31;;;23.11;61.10
18988;BME280;5494;51.796;10.952;2023-08-12T04:34:08;99074.38;;;23.16;61.08
18988;BME280;5494;51.796;10.952;2023-08-12T04:36:36;99075.41;;;23.23;60.40
18988;BME280;5494;51.796;10.952;2023-08-12T04:39:05;99069.84;;;23.34;60.40
18988;BME280;5494;51.796;10.952;2023-08-12T04:41:33;99067.03;;;23.36;60.19
18988;BME280;5494;51.796;10.952;2023-08-12T04:44:04;99071.03;;;23.40;59.36
18988;BME280;5494;51.796;10.952;2023-08-12T04:46:32;99072.53;;;23.42;59.87
18988;BME280;5494;51.796;10.952;2023-08-12T04:49:02;99075.84;;;23.44;59.82
18988;BME280;5494;51.796;10.952;2023-08-12T04:51:30;99085.06;;;23.50;59.89
18988;BME280;5494;51.796;10.952;2023-08-12T04:53:59;99081.94;;;23.54;59.91
18988;BME280;5494;51.796;10.952;2023-08-12T04:56:28;99085.09;;;23.58;59.80
18988;BME280;5494;51.796;10.952;2023-08-12T04:58:56;99085.00;;;23.68;59.02
18988;BME280;5494;51.796;10.952;2023-08-12T05:01:25;99085.19;;;23.74;58.91
18988;BME280;5494;51.796;10.952;2023-08-12T05:03:54;99077.56;;;23.79;58.68
18988;BME280;5494;51.796;10.952;2023-08-12T05:06:24;99096.00;;;23.81;59.17
18988;BME280;5494;51.796;10.952;2023-08-12T05:08:53;99081.59;;;23.83;59.15
18988;BME280;5494;51.796;10.952;2023-08-12T05:11:21;99089.41;;;23.85;58.96
18988;BME280;5494;51.796;10.952;2023-08-12T05:13:50;99085.34;;;23.73;60.11
18988;BME280;5494;51.796;10.952;2023-08-12T05:16:19;99085.34;;;23.73;60.29
18988;BME280;5494;51.796;10.952;2023-08-12T05:18:47;99093.44;;;23.63;60.61
18988;BME280;5494;51.796;10.952;2023-08-12T05:21:15;99101.97;;;23.49;62.40
18988;BME280;5494;51.796;10.952;2023-08-12T05:23:45;99104.69;;;23.39;62.54
18988;BME280;5494;51.796;10.952;2023-08-12T05:26:13;99098.88;;;23.36;64.01
18988;BME280;5494;51.796;10.952;2023-08-12T05:28:41;99090.94;;;23.18;67.41
18988;BME280;5494;51.796;10.952;2023-08-12T05:31:09;99101.38;;;22.94;72.57
18988;BME280;5494;51.796;10.952;2023-08-12T05:33:37;99107.03;;;22.63;79.49
18988;BME280;5494;51.796;10.952;2023-08-12T05:36:05;99103.06;;;22.32;86.03
18988;BME280;5494;51.796;10.952;2023-08-12T05:38:33;99102.09;;;22.06;91.91
18988;BME280;5494;51.796;10.952;2023-08-12T05:41:03;99094.41;;;21.75;98.85
18988;BME280;5494;51.796;10.952;2023-08-12T05:43:34;99086.94;;;21.51;100.00
18988;BME280;5494;51.796;10.952;2023-08-12T05:46:02;99083.78;;;21.48;100.00
18988;BME280;5494;51.796;10.952;2023-08-12T05:48:30;99082.13;;;21.37;100.00
18988;BME280;5494;51.796;10.952;2023-08-12T05:50:58;99067.25;;;21.27;100.00
18988;BME280;5494;51.796;10.952;2023-08-12T05:53:26;99071.59;;;21.18;100.00
18988;BME280;5494;51.796;10.952;2023-08-12T05:55:54;99070.47;;;21.20;100.00
18988;BME280;5494;51.796;10.952;2023-08-12T05:58:24;99070.47;;;21.20;100.00
18988;BME280;5494;51.796;10.952;2023-08-12T06:00:52;99068.38;;;21.24;100.00
18988;BME280;5494;51.796;10.952;2023-08-12T06:03:20;99056.28;;;21.21;100.00
18988;BME280;5494;51.796;10.952;2023-08-12T06:05:49;99060.59;;;21.23;100.00
18988;BME280;5494;51.796;10.952;2023-08-12T06:08:17;99065.16;;;21.11;100.00
18988;BME280;5494;51.796;10.952;2023-08-12T06:10:45;99069.38;;;20.94;100.00
18988;BME280;5494;51.796;10.952;2023-08-12T06:13:13;99079.53;;;20.89;100.00
18988;BME280;5494;51.796;10.952;2023-08-12T06:15:42;99071.59;;;21.08;100.00
18988;BME280;5494;51.796;10.952;2023-08-12T06:18:11;99076.59;;;21.21;100.00
18988;BME280;5494;51.796;10.952;2023-08-12T06:20:39;99079.13;;;21.23;100.00
18988;BME280;5494;51.796;10.952;2023-08-12T06:23:07;99080.50;;;21.27;100.00
18988;BME280;5494;51.796;10.952;2023-08-12T06:25:35;99084.50;;;21.40;100.00
18988;BME280;5494;51.796;10.952;2023-08-12T06:28:05;99070.44;;;21.40;100.00
18988;BME280;5494;51.796;10.952;2023-08-12T06:30:35;99080.03;;;21.41;100.00
18988;BME280;5494;51.796;10.952;2023-08-12T06:33:04;99076.66;;;21.48;100.00
18988;BME280;5494;51.796;10.952;2023-08-12T06:35:32;99070.16;;;21.43;100.00
18988;BME280;5494;51.796;10.952;2023-08-12T06:38:00;99069.84;;;21.46;100.00
18988;BME280;5494;51.796;10.952;2023-08-12T06:40:29;99078.34;;;21.49;100.00
18988;BME280;5494;51.796;10.952;2023-08-12T06:42:57;99065.25;;;21.48;100.00
18988;BME280;5494;51.796;10.952;2023-08-12T06:45:25;99078.88;;;21.53;100.00
18988;BME280;5494;51.796;10.952;2023-08-12T06:47:53;99075.19;;;21.36;100.00
18988;BME280;5494;51.796;10.952;2023-08-12T06:50:23;99075.72;;;21.30;100.00
18988;BME280;5494;51.796;10.952;2023-08-12T06:52:51;99076.00;;;21.37;100.00
18988;BME280;5494;51.796;10.952;2023-08-12T06:55:19;99064.84;;;21.43;100.00
18988;BME280;5494;51.796;10.952;2023-08-12T06:57:47;99063.72;;;21.45;100.00
18988;BME280;5494;51.796;10.952;2023-08-12T07:00:16;99069.81;;;21.55;100.00
18988;BME280;5494;51.796;10.952;2023-08-12T07:02:44;99064.06;;;21.70;100.00
18988;BME280;5494;51.796;10.952;2023-08-12T07:05:12;99069.34;;;21.70;100.00
18988;BME280;5494;51.796;10.952;2023-08-12T07:07:41;99083.72;;;21.94;100.00
18988;BME280;5494;51.796;10.952;2023-08-12T07:10:10;99099.03;;;22.00;100.00
18988;BME280;5494;51.796;10.952;2023-08-12T07:12:38;99098.66;;;21.86;100.00
18988;BME280;5494;51.796;10.952;2023-08-12T07:15:08;99099.31;;;21.70;100.00
18988;BME280;5494;51.796;10.952;2023-08-12T07:17:37;99105.44;;;21.71;100.00
18988;BME280;5494;51.796;10.952;2023-08-12T07:20:07;99093.44;;;21.67;100.00
18988;BME280;5494;51.796;10.952;2023-08-12T07:22:35;99088.75;;;21.51;100.00
18988;BME280;5494;51.796;10.952;2023-08-12T07:25:06;99086.13;;;21.51;100.00
18988;BME280;5494;51.796;10.952;2023-08-12T07:27:34;99090.69;;;21.58;100.00
18988;BME280;5494;51.796;10.952;2023-08-12T07:30:03;99089.56;;;21.61;100.00
18988;BME280;5494;51.796;10.952;2023-08-12T07:32:31;99079.81;;;21.61;100.00
18988;BME280;5494;51.796;10.952;2023-08-12T07:34:59;99087.47;;;21.65;100.00
18988;BME280;5494;51.796;10.952;2023-08-12T07:37:28;99077.56;;;21.67;100.00
18988;BME280;5494;51.796;10.952;2023-08-12T07:39:56;99076.88;;;21.65;100.00
18988;BME280;5494;51.796;10.952;2023-08-12T07:42:26;99093.03;;;21.71;100.00
18988;BME280;5494;51.796;10.952;2023-08-12T07:44:54;99096.72;;;21.78;100.00
18988;BME280;5494;51.796;10.952;2023-08-12T07:47:22;99094.78;;;21.80;100.00
18988;BME280;5494;51.796;10.952;2023-08-12T07:49:50;99103.31;;;21.74;100.00
18988;BME280;5494;51.796;10.952;2023-08-12T07:52:18;99093.69;;;21.73;100.00
18988;BME280;5494;51.796;10.952;2023-08-12T07:54:47;99102.63;;;21.72;100.00
18988;BME280;5494;51.796;10.952;2023-08-12T07:57:15;99098.16;;;21.73;100.00
18988;BME280;5494;51.796;10.952;2023-08-12T07:59:44;99099.56;;;21.67;100.00
18988;BME280;5494;51.796;10.952;2023-08-12T08:02:12;99089.00;;;21.67;100.00
18988;BME280;5494;51.796;10.952;2023-08-12T08:04:41;99082.03;;;21.66;100.00
18988;BME280;5494;51.796;10.952;2023-08-12T08:07:10;99088.16;;;21.67;100.00
18988;BME280;5494;51.796;10.952;2023-08-12T08:09:38;99093.91;;;21.62;100.00
18988;BME280;5494;51.796;10.952;2023-08-12T08:12:08;99096.78;;;21.69;100.00
18988;BME280;5494;51.796;10.952;2023-08-12T08:14:37;99079.50;;;21.74;100.00
18988;BME280;5494;51.796;10.952;2023-08-12T08:17:07;99083.00;;;21.65;100.00
18988;BME280;5494;51.796;10.952;2023-08-12T08:19:35;99090.38;;;21.71;100.00
18988;BME280;5494;51.796;10.952;2023-08-12T08:22:03;99085.75;;;21.73;100.00
18988;BME280;5494;51.796;10.952;2023-08-12T08:24:31;99083.94;;;21.74;100.00
18988;BME280;5494;51.796;10.952;2023-08-12T08:27:00;99087.09;;;21.87;100.00
18988;BME280;5494;51.796;10.952;2023-08-12T08:29:28;99080.13;;;21.86;100.00
18988;BME280;5494;51.796;10.952;2023-08-12T08:31:56;99067.81;;;22.04;99.56
18988;BME280;5494;51.796;10.952;2023-08-12T08:34:25;99060.13;;;22.11;98.02
18988;BME280;5494;51.796;10.952;2023-08-12T08:36:53;99050.44;;;22.19;96.84
18988;BME280;5494;51.796;10.952;2023-08-12T08:39:22;99049.31;;;22.22;97.35
18988;BME280;5494;51.796;10.952;2023-08-12T08:41:54;99052.25;;;22.19;96.40
18988;BME280;5494;51.796;10.952;2023-08-12T08:44:23;99051.03;;;22.13;96.78
18988;BME280;5494;51.796;10.952;2023-08-12T08:46:53;99061.81;;;22.29;96.97
18988;BME280;5494;51.796;10.952;2023-08-12T08:49:22;99064.31;;;22.31;96.39
18988;BME280;5494;51.796;10.952;2023-08-12T08:51:52;99062.88;;;22.54;97.79
18988;BME280;5494;51.796;10.952;2023-08-12T08:54:21;99071.59;;;22.64;100.00
18988;BME280;5494;51.796;10.952;2023-08-12T08:56:49;99072.72;;;22.62;100.00
18988;BME280;5494;51.796;10.952;2023-08-12T08:59:27;99072.72;;;22.44;100.00
18988;BME280;5494;51.796;10.952;2023-08-12T09:01:56;99065.84;;;22.51;96.26
18988;BME280;5494;51.796;10.952;2023-08-12T09:04:27;99064.69;;;22.71;93.28
18988;BME280;5494;51.796;10.952;2023-08-12T09:06:58;99070.81;;;22.72;92.82
18988;BME280;5494;51.796;10.952;2023-08-12T09:09:27;99065.78;;;22.78;88.59
18988;BME280;5494;51.796;10.952;2023-08-12T09:11:56;99068.94;;;22.64;92.46
18988;BME280;5494;51.796;10.952;2023-08-12T09:14:24;99069.31;;;22.69;94.70
18988;BME280;5494;51.796;10.952;2023-08-12T09:16:52;99066.53;;;22.53;94.60
18988;BME280;5494;51.796;10.952;2023-08-12T09:19:23;99068.88;;;22.92;90.76
18988;BME280;5494;51.796;10.952;2023-08-12T09:21:52;99073.81;;;22.87;89.51
18988;BME280;5494;51.796;10.952;2023-08-12T09:24:26;99065.47;;;22.82;90.79
18988;BME280;5494;51.796;10.952;2023-08-12T09:26:55;99060.75;;;22.93;90.20
18988;BME280;5494;51.796;10.952;2023-08-12T09:29:23;99063.09;;;22.96;88.14
18988;BME280;5494;51.796;10.952;2023-08-12T09:31:52;99056.41;;;23.10;85.79
18988;BME280;5494;51.796;10.952;2023-08-12T09:34:20;99059.38;;;23.07;88.05
18988;BME280;5494;51.796;10.952;2023-08-12T09:36:52;99054.56;;;23.10;86.67
18988;BME280;5494;51.796;10.952;2023-08-12T09:39:20;99055.47;;;23.19;87.62
18988;BME280;5494;51.796;10.952;2023-08-12T09:41:51;99040.69;;;23.42;86.90
18988;BME280;5494;51.796;10.952;2023-08-12T09:44:19;99045.00;;;23.69;83.91
18988;BME280;5494;51.796;10.952;2023-08-12T09:46:47;99030.53;;;24.06;80.26
18988;BME280;5494;51.796;10.952;2023-08-12T09:49:17;99032.31;;;24.39;79.01
18988;BME280;5494;51.796;10.952;2023-08-12T09:51:45;99034.97;;;24.71;74.47
18988;BME280;5494;51.796;10.952;2023-08-12T09:54:13;99024.53;;;24.94;75.56
18988;BME280;5494;51.796;10.952;2023-08-12T09:56:48;99013.50;;;25.22;72.16
18988;BME280;5494;51.796;10.952;2023-08-12T09:59:19;99014.88;;;25.09;71.43
18988;BME280;5494;51.796;10.952;2023-08-12T10:01:50;99007.53;;;25.20;71.06
18988;BME280;5494;51.796;10.952;2023-08-12T10:04:23;99005.38;;;25.07;72.01
18988;BME280;5494;51.796;10.952;2023-08-12T10:06:52;99003.88;;;25.04;70.40
18988;BME280;5494;51.796;10.952;2023-08-12T10:09:22;98992.75;;;25.09;72.14
18988;BME280;5494;51.796;10.952;2023-08-12T10:11:53;98995.47;;;25.40;71.78
18988;BME280;5494;51.796;10.952;2023-08-12T10:14:22;98991.34;;;25.84;70.47
18988;BME280;5494;51.796;10.952;2023-08-12T10:16:52;98994.03;;;26.07;68.92
18988;BME280;5494;51.796;10.952;2023-08-12T10:19:35;98990.59;;;26.30;65.93
18988;BME280;5494;51.796;10.952;2023-08-12T10:22:04;98986.38;;;26.58;64.64
18988;BME280;5494;51.796;10.952;2023-08-12T10:24:34;98978.19;;;26.59;63.99
18988;BME280;5494;51.796;10.952;2023-08-12T10:27:05;98975.66;;;26.81;62.39
18988;BME280;5494;51.796;10.952;2023-08-12T10:29:35;98972.09;;;26.88;62.69
18988;BME280;5494;51.796;10.952;2023-08-12T10:32:03;98979.16;;;26.81;62.53
18988;BME280;5494;51.796;10.952;2023-08-12T10:34:32;98960.59;;;26.88;60.85
18988;BME280;5494;51.796;10.952;2023-08-12T10:37:02;98957.78;;;27.04;60.64
18988;BME280;5494;51.796;10.952;2023-08-12T10:39:32;98968.94;;;27.22;60.19
18988;BME280;5494;51.796;10.952;2023-08-12T10:42:01;98973.63;;;27.50;58.18
18988;BME280;5494;51.796;10.952;2023-08-12T10:44:40;98969.59;;;27.90;57.10
18988;BME280;5494;51.796;10.952;2023-08-12T10:47:17;98973.44;;;28.16;55.29
18988;BME280;5494;51.796;10.952;2023-08-12T10:49:49;98968.94;;;28.66;54.52
18988;BME280;5494;51.796;10.952;2023-08-12T10:52:27;98976.53;;;28.84;51.94
18988;BME280;5494;51.796;10.952;2023-08-12T10:55:17;98979.00;;;28.85;52.32
18988;BME280;5494;51.796;10.952;2023-08-12T10:57:46;98979.31;;;28.48;52.67
18988;BME280;5494;51.796;10.952;2023-08-12T11:00:17;98969.91;;;28.16;54.15
18988;BME280;5494;51.796;10.952;2023-08-12T11:02:51;98979.28;;;27.91;55.95
18988;BME280;5494;51.796;10.952;2023-08-12T11:05:20;98972.25;;;28.04;57.02
18988;BME280;5494;51.796;10.952;2023-08-12T11:07:56;98977.91;;;27.80;56.87
18988;BME280;5494;51.796;10.952;2023-08-12T11:10:27;98974.00;;;27.97;57.17
18988;BME280;5494;51.796;10.952;2023-08-12T11:13:00;98975.97;;;27.89;57.83
18988;BME280;5494;51.796;10.952;2023-08-12T11:15:33;98966.09;;;27.89;58.17
18988;BME280;5494;51.796;10.952;2023-08-12T11:18:03;98957.28;;;27.74;58.13
18988;BME280;5494;51.796;10.952;2023-08-12T11:20:33;98953.00;;;27.58;59.97
18988;BME280;5494;51.796;10.952;2023-08-12T11:23:03;98959.44;;;27.49;60.38
18988;BME280;5494;51.796;10.952;2023-08-12T11:25:34;98955.50;;;27.45;61.18
18988;BME280;5494;51.796;10.952;2023-08-12T11:28:04;98945.81;;;27.44;61.24
18988;BME280;5494;51.796;10.952;2023-08-12T11:30:34;98950.06;;;27.24;63.06
18988;BME280;5494;51.796;10.952;2023-08-12T11:33:03;98957.78;;;27.48;63.31
18988;BME280;5494;51.796;10.952;2023-08-12T11:35:32;98943.75;;;27.75;61.41
18988;BME280;5494;51.796;10.952;2023-08-12T11:38:00;98942.72;;;28.12;61.49
18988;BME280;5494;51.796;10.952;2023-08-12T11:40:28;98947.31;;;28.40;60.72
18988;BME280;5494;51.796;10.952;2023-08-12T11:42:59;98938.66;;;28.38;59.06
18988;BME280;5494;51.796;10.952;2023-08-12T11:45:27;98935.47;;;28.49;58.23
18988;BME280;5494;51.796;10.952;2023-08-12T11:47:57;98929.63;;;28.67;57.84
18988;BME280;5494;51.796;10.952;2023-08-12T11:50:26;98935.53;;;28.55;57.90
18988;BME280;5494;51.796;10.952;2023-08-12T11:52:56;98934.03;;;28.74;58.89
18988;BME280;5494;51.796;10.952;2023-08-12T11:55:25;98935.31;;;28.78;58.29
18988;BME280;5494;51.796;10.952;2023-08-12T11:57:54;98935.75;;;28.82;58.15
18988;BME280;5494;51.796;10.952;2023-08-12T12:00:24;98937.16;;;29.12;57.24
18988;BME280;5494;51.796;10.952;2023-08-12T12:02:56;98924.88;;;28.83;56.26
18988;BME280;5494;51.796;10.952;2023-08-12T12:05:28;98918.25;;;28.58;57.16
18988;BME280;5494;51.796;10.952;2023-08-12T12:07:59;98923.59;;;28.58;56.90
18988;BME280;5494;51.796;10.952;2023-08-12T12:10:30;98929.25;;;28.42;58.78
18988;BME280;5494;51.796;10.952;2023-08-12T12:13:04;98924.97;;;28.47;59.20
18988;BME280;5494;51.796;10.952;2023-08-12T12:15:38;98921.22;;;28.42;58.82
18988;BME280;5494;51.796;10.952;2023-08-12T12:18:11;98923.25;;;28.40;60.26
18988;BME280;5494;51.796;10.952;2023-08-12T12:20:54;98915.97;;;28.55;59.41
18988;BME280;5494;51.796;10.952;2023-08-12T12:23:31;98911.97;;;28.72;57.55
18988;BME280;5494;51.796;10.952;2023-08-12T12:26:02;98909.72;;;28.69;58.05
18988;BME280;5494;51.796;10.952;2023-08-12T12:28:31;98915.88;;;28.70;57.00
18988;BME280;5494;51.796;10.952;2023-08-12T12:30:59;98902.81;;;28.81;58.08
18988;BME280;5494;51.796;10.952;2023-08-12T12:33:29;98910.50;;;28.97;55.51
18988;BME280;5494;51.796;10.952;2023-08-12T12:35:57;98896.41;;;28.76;55.70
18988;BME280;5494;51.796;10.952;2023-08-12T12:38:29;98908.13;;;28.53;56.63
18988;BME280;5494;51.796;10.952;2023-08-12T12:40:57;98905.88;;;28.57;57.21
18988;BME280;5494;51.796;10.952;2023-08-12T12:43:25;98900.88;;;28.47;57.15
18988;BME280;5494;51.796;10.952;2023-08-12T12:45:53;98890.44;;;28.52;56.72
18988;BME280;5494;51.796;10.952;2023-08-12T12:48:21;98891.16;;;28.40;57.33
18988;BME280;5494;51.796;10.952;2023-08-12T12:50:51;98890.13;;;28.41;58.92
18988;BME280;5494;51.796;10.952;2023-08-12T12:53:19;98890.28;;;28.88;56.69
18988;BME280;5494;51.796;10.952;2023-08-12T12:55:48;98894.13;;;29.14;54.91
18988;BME280;5494;51.796;10.952;2023-08-12T12:58:17;98894.34;;;29.19;55.69
18988;BME280;5494;51.796;10.952;2023-08-12T13:00:45;98899.06;;;29.45;54.38
18988;BME280;5494;51.796;10.952;2023-08-12T13:03:13;98879.34;;;29.65;52.99
18988;BME280;5494;51.796;10.952;2023-08-12T13:05:41;98883.41;;;29.55;52.94
18988;BME280;5494;51.796;10.952;2023-08-12T13:08:10;98880.34;;;29.64;51.91
18988;BME280;5494;51.796;10.952;2023-08-12T13:10:38;98883.81;;;29.45;52.95